createdAt,value
2017-05-10T00:00:11.924Z,0
2017-05-10T00:00:52.810Z,0
2017-05-10T00:01:33.707Z,0
2017-05-10T00:02:14.582Z,0
2017-05-10T00:02:55.455Z,0
2017-05-10T00:03:36.343Z,0
2017-05-10T00:04:17.228Z,0
2017-05-10T00:04:58.123Z,0
2017-05-10T00:05:38.989Z,0
2017-05-10T00:06:19.874Z,0
2017-05-10T00:07:00.780Z,0
2017-05-10T00:07:41.670Z,0
2017-05-10T00:08:22.558Z,0
2017-05-10T00:09:03.449Z,0
2017-05-10T00:09:44.325Z,0
2017-05-10T00:10:25.599Z,0
2017-05-10T00:11:06.483Z,0
2017-05-10T00:11:47.387Z,0
2017-05-10T00:12:28.287Z,0
2017-05-10T00:13:09.171Z,0
2017-05-10T00:13:50.057Z,0
2017-05-10T00:14:30.938Z,0
2017-05-10T00:15:11.821Z,0
2017-05-10T00:15:52.704Z,0
2017-05-10T00:16:33.593Z,0
2017-05-10T00:17:14.494Z,0
2017-05-10T00:17:55.366Z,0
2017-05-10T00:18:36.258Z,0
2017-05-10T00:19:17.142Z,0
2017-05-10T00:19:58.033Z,0
2017-05-10T00:20:38.896Z,0
2017-05-10T00:21:19.779Z,0
2017-05-10T00:22:00.655Z,0
2017-05-10T00:22:41.557Z,0
2017-05-10T00:23:22.424Z,0
2017-05-10T00:24:03.320Z,0
2017-05-10T00:24:44.207Z,0
2017-05-10T00:25:25.082Z,0
2017-05-10T00:26:05.958Z,0
2017-05-10T00:26:46.841Z,0
2017-05-10T00:27:27.736Z,0
2017-05-10T00:28:08.613Z,0
2017-05-10T00:28:49.492Z,0
2017-05-10T00:29:30.373Z,0
2017-05-10T00:30:11.262Z,0
2017-05-10T00:30:52.152Z,0
2017-05-10T00:31:33.060Z,0
2017-05-10T00:32:13.934Z,0
2017-05-10T00:32:54.815Z,0
2017-05-10T00:33:35.693Z,0
2017-05-10T00:34:16.580Z,0
2017-05-10T00:34:57.514Z,0
2017-05-10T00:35:38.398Z,0
2017-05-10T00:36:19.289Z,0
2017-05-10T00:37:00.169Z,0
2017-05-10T00:37:41.049Z,0
2017-05-10T00:38:21.930Z,0
2017-05-10T00:39:02.842Z,0
2017-05-10T00:39:43.723Z,0
2017-05-10T00:40:24.609Z,0
2017-05-10T00:41:05.558Z,0
2017-05-10T00:41:46.466Z,0
2017-05-10T00:42:27.347Z,0
2017-05-10T00:43:08.220Z,0
2017-05-10T00:43:49.142Z,0
2017-05-10T00:44:29.990Z,0
2017-05-10T00:45:10.872Z,0
2017-05-10T00:45:51.750Z,0
2017-05-10T00:46:32.636Z,0
2017-05-10T00:47:13.523Z,0
2017-05-10T00:47:54.425Z,0
2017-05-10T00:48:35.283Z,0
2017-05-10T00:49:16.164Z,0
2017-05-10T00:49:57.056Z,0
2017-05-10T00:50:37.944Z,0
2017-05-10T00:51:18.826Z,0
2017-05-10T00:51:59.710Z,0
2017-05-10T00:52:40.602Z,0
2017-05-10T00:53:21.473Z,0
2017-05-10T00:54:02.360Z,0
2017-05-10T00:54:43.247Z,0
2017-05-10T00:55:24.129Z,0
2017-05-10T00:56:05.027Z,0
2017-05-10T00:56:45.912Z,0
2017-05-10T00:57:26.807Z,0
2017-05-10T00:58:07.683Z,0
2017-05-10T00:58:48.559Z,0
2017-05-10T00:59:29.446Z,0
2017-05-10T01:00:10.352Z,0
2017-05-10T01:00:51.233Z,0
2017-05-10T01:01:32.097Z,0
2017-05-10T01:02:12.976Z,0
2017-05-10T01:02:53.914Z,0
2017-05-10T01:03:34.751Z,0
2017-05-10T01:04:15.625Z,0
2017-05-10T01:04:56.489Z,0
2017-05-10T01:05:37.370Z,0
2017-05-10T01:06:18.275Z,0
2017-05-10T01:06:59.157Z,0
2017-05-10T01:07:40.026Z,0
2017-05-10T01:08:20.900Z,0
2017-05-10T01:09:01.764Z,0
2017-05-10T01:09:42.671Z,0
2017-05-10T01:10:23.551Z,0
2017-05-10T01:11:04.416Z,0
2017-05-10T01:11:45.296Z,0
2017-05-10T01:12:26.194Z,0
2017-05-10T01:13:07.082Z,0
2017-05-10T01:13:47.947Z,0
2017-05-10T01:14:28.811Z,0
2017-05-10T01:15:09.684Z,0
2017-05-10T01:15:50.573Z,0
2017-05-10T01:16:31.452Z,0
2017-05-10T01:17:12.328Z,0
2017-05-10T01:17:53.204Z,0
2017-05-10T01:18:34.083Z,0
2017-05-10T01:19:14.995Z,0
2017-05-10T01:19:55.848Z,0
2017-05-10T01:20:36.728Z,0
2017-05-10T01:21:17.595Z,0
2017-05-10T01:21:58.473Z,0
2017-05-10T01:22:39.364Z,0
2017-05-10T01:23:20.239Z,0
2017-05-10T01:24:01.113Z,0
2017-05-10T01:24:41.982Z,0
2017-05-10T01:25:22.865Z,0
2017-05-10T01:26:03.750Z,0
2017-05-10T01:26:44.653Z,0
2017-05-10T01:27:25.515Z,0
2017-05-10T01:28:06.396Z,0
2017-05-10T01:28:47.300Z,0
2017-05-10T01:29:28.179Z,0
2017-05-10T01:30:09.046Z,0
2017-05-10T01:30:49.936Z,0
2017-05-10T01:31:30.838Z,0
2017-05-10T01:32:11.714Z,0
2017-05-10T01:32:52.581Z,0
2017-05-10T01:33:33.448Z,0
2017-05-10T01:34:14.321Z,0
2017-05-10T01:34:55.199Z,0
2017-05-10T01:35:36.100Z,0
2017-05-10T01:36:16.962Z,0
2017-05-10T01:36:57.828Z,0
2017-05-10T01:37:38.707Z,0
2017-05-10T01:38:19.590Z,0
2017-05-10T01:39:00.476Z,0
2017-05-10T01:39:41.361Z,0
2017-05-10T01:40:22.304Z,0
2017-05-10T01:41:03.164Z,0
2017-05-10T01:41:44.045Z,0
2017-05-10T01:42:24.928Z,0
2017-05-10T01:43:05.822Z,0
2017-05-10T01:43:46.702Z,0
2017-05-10T01:44:27.592Z,0
2017-05-10T01:45:08.497Z,0
2017-05-10T01:45:49.376Z,0
2017-05-10T01:46:30.271Z,0
2017-05-10T01:47:11.163Z,0
2017-05-10T01:47:52.055Z,0
2017-05-10T01:48:32.940Z,0
2017-05-10T01:49:13.824Z,0
2017-05-10T01:49:54.729Z,0
2017-05-10T01:50:35.611Z,0
2017-05-10T01:51:16.495Z,0
2017-05-10T01:51:57.404Z,0
2017-05-10T01:52:38.297Z,0
2017-05-10T01:53:19.211Z,0
2017-05-10T01:54:00.085Z,0
2017-05-10T01:54:40.982Z,0
2017-05-10T01:55:21.868Z,0
2017-05-10T01:56:02.758Z,0
2017-05-10T01:56:43.637Z,0
2017-05-10T01:57:24.536Z,0
2017-05-10T01:58:05.432Z,0
2017-05-10T01:58:46.294Z,0
2017-05-10T01:59:27.156Z,0
2017-05-10T02:00:08.046Z,0
2017-05-10T02:00:48.936Z,0
2017-05-10T02:01:29.851Z,0
2017-05-10T02:02:10.733Z,0
2017-05-10T02:02:51.630Z,0
2017-05-10T02:03:32.515Z,0
2017-05-10T02:04:13.386Z,0
2017-05-10T02:04:54.269Z,0
2017-05-10T02:05:35.222Z,0
2017-05-10T02:06:16.103Z,0
2017-05-10T02:06:56.988Z,0
2017-05-10T02:07:37.861Z,0
2017-05-10T02:08:18.743Z,0
2017-05-10T02:08:59.637Z,0
2017-05-10T02:09:40.533Z,0
2017-05-10T02:10:21.406Z,0
2017-05-10T02:11:02.306Z,0
2017-05-10T02:11:43.198Z,0
2017-05-10T02:12:24.074Z,0
2017-05-10T02:13:04.949Z,0
2017-05-10T02:13:45.834Z,0
2017-05-10T02:14:26.723Z,0
2017-05-10T02:15:07.604Z,0
2017-05-10T02:15:48.493Z,0
2017-05-10T02:16:29.376Z,0
2017-05-10T02:17:10.268Z,0
2017-05-10T02:17:51.151Z,0
2017-05-10T02:18:32.047Z,0
2017-05-10T02:19:12.928Z,0
2017-05-10T02:19:53.812Z,0
2017-05-10T02:20:34.688Z,0
2017-05-10T02:21:15.561Z,0
2017-05-10T02:21:56.458Z,0
2017-05-10T02:22:37.334Z,0
2017-05-10T02:23:18.211Z,0
2017-05-10T02:23:59.107Z,0
2017-05-10T02:24:39.992Z,0
2017-05-10T02:25:20.869Z,0
2017-05-10T02:26:01.744Z,0
2017-05-10T02:26:42.622Z,0
2017-05-10T02:27:23.501Z,0
2017-05-10T02:28:04.385Z,0
2017-05-10T02:28:45.322Z,0
2017-05-10T02:29:26.220Z,0
2017-05-10T02:30:07.091Z,0
2017-05-10T02:30:47.970Z,0
2017-05-10T02:31:28.855Z,0
2017-05-10T02:32:09.741Z,0
2017-05-10T02:32:50.631Z,0
2017-05-10T02:33:31.509Z,0
2017-05-10T02:34:12.409Z,0
2017-05-10T02:34:53.292Z,0
2017-05-10T02:35:34.186Z,0
2017-05-10T02:36:15.071Z,0
2017-05-10T02:36:55.961Z,0
2017-05-10T02:37:36.834Z,0
2017-05-10T02:38:17.706Z,0
2017-05-10T02:38:58.587Z,0
2017-05-10T02:39:39.492Z,0
2017-05-10T02:40:20.357Z,0
2017-05-10T02:41:01.236Z,0
2017-05-10T02:41:42.129Z,0
2017-05-10T02:42:23.015Z,0
2017-05-10T02:43:03.894Z,0
2017-05-10T02:43:44.761Z,0
2017-05-10T02:44:25.638Z,0
2017-05-10T02:45:06.526Z,0
2017-05-10T02:45:47.416Z,0
2017-05-10T02:46:28.298Z,0
2017-05-10T02:47:09.166Z,0
2017-05-10T02:47:50.048Z,0
2017-05-10T02:48:30.958Z,0
2017-05-10T02:49:11.827Z,0
2017-05-10T02:49:52.712Z,0
2017-05-10T02:50:33.606Z,4
2017-05-10T02:51:14.485Z,4
2017-05-10T02:51:55.360Z,4
2017-05-10T02:52:36.283Z,4
2017-05-10T02:53:17.163Z,4
2017-05-10T02:53:58.045Z,0
2017-05-10T02:54:38.947Z,0
2017-05-10T02:55:19.840Z,0
2017-05-10T02:56:00.719Z,0
2017-05-10T02:56:41.633Z,0
2017-05-10T02:57:22.528Z,4
2017-05-10T02:58:03.407Z,4
2017-05-10T02:58:44.298Z,4
2017-05-10T02:59:25.175Z,4
2017-05-10T03:00:06.061Z,4
2017-05-10T03:00:46.933Z,4
2017-05-10T03:01:27.838Z,4
2017-05-10T03:02:08.722Z,4
2017-05-10T03:02:49.619Z,8
2017-05-10T03:03:30.475Z,4
2017-05-10T03:04:11.365Z,8
2017-05-10T03:04:52.259Z,8
2017-05-10T03:05:33.133Z,12
2017-05-10T03:06:14.011Z,8
2017-05-10T03:06:54.893Z,12
2017-05-10T03:07:35.792Z,12
2017-05-10T03:08:16.757Z,16
2017-05-10T03:08:57.675Z,20
2017-05-10T03:09:38.540Z,20
2017-05-10T03:10:19.446Z,20
2017-05-10T03:11:00.337Z,24
2017-05-10T03:11:41.223Z,24
2017-05-10T03:12:22.106Z,24
2017-05-10T03:13:02.974Z,28
2017-05-10T03:13:43.868Z,28
2017-05-10T03:14:24.748Z,32
2017-05-10T03:15:05.637Z,32
2017-05-10T03:15:46.511Z,36
2017-05-10T03:16:27.392Z,40
2017-05-10T03:17:08.291Z,44
2017-05-10T03:17:49.170Z,44
2017-05-10T03:18:30.051Z,52
2017-05-10T03:19:10.955Z,52
2017-05-10T03:19:51.842Z,56
2017-05-10T03:20:32.721Z,60
2017-05-10T03:21:13.603Z,64
2017-05-10T03:21:54.487Z,72
2017-05-10T03:22:35.381Z,76
2017-05-10T03:23:16.234Z,80
2017-05-10T03:23:57.112Z,84
2017-05-10T03:24:38.001Z,88
2017-05-10T03:25:18.955Z,92
2017-05-10T03:25:59.778Z,92
2017-05-10T03:26:40.664Z,100
2017-05-10T03:27:21.528Z,100
2017-05-10T03:28:02.422Z,100
2017-05-10T03:28:43.308Z,104
2017-05-10T03:29:24.193Z,108
2017-05-10T03:30:05.080Z,108
2017-05-10T03:30:45.983Z,112
2017-05-10T03:31:26.846Z,112
2017-05-10T03:32:07.740Z,116
2017-05-10T03:32:48.623Z,116
2017-05-10T03:33:29.507Z,116
2017-05-10T03:34:10.392Z,120
2017-05-10T03:34:51.274Z,120
2017-05-10T03:35:32.160Z,128
2017-05-10T03:36:13.042Z,136
2017-05-10T03:36:53.923Z,144
2017-05-10T03:37:34.809Z,152
2017-05-10T03:38:15.821Z,156
2017-05-10T03:38:56.690Z,164
2017-05-10T03:39:37.568Z,176
2017-05-10T03:40:18.441Z,184
2017-05-10T03:40:59.326Z,192
2017-05-10T03:41:40.214Z,200
2017-05-10T03:42:21.090Z,212
2017-05-10T03:43:01.958Z,220
2017-05-10T03:43:42.837Z,232
2017-05-10T03:44:23.715Z,244
2017-05-10T03:45:04.589Z,248
2017-05-10T03:45:45.470Z,248
2017-05-10T03:46:26.346Z,244
2017-05-10T03:47:07.231Z,248
2017-05-10T03:47:48.111Z,256
2017-05-10T03:48:28.993Z,264
2017-05-10T03:49:09.874Z,276
2017-05-10T03:49:50.763Z,288
2017-05-10T03:50:31.667Z,300
2017-05-10T03:51:12.550Z,312
2017-05-10T03:51:53.487Z,324
2017-05-10T03:52:34.341Z,336
2017-05-10T03:53:15.208Z,352
2017-05-10T03:53:56.085Z,372
2017-05-10T03:54:36.969Z,384
2017-05-10T03:55:17.883Z,396
2017-05-10T03:55:58.748Z,408
2017-05-10T03:56:39.628Z,420
2017-05-10T03:57:20.504Z,428
2017-05-10T03:58:01.388Z,440
2017-05-10T03:58:42.275Z,452
2017-05-10T03:59:23.152Z,464
2017-05-10T04:00:04.029Z,484
2017-05-10T04:00:44.922Z,500
2017-05-10T04:01:25.817Z,516
2017-05-10T04:02:06.707Z,532
2017-05-10T04:02:47.538Z,540
2017-05-10T04:03:28.419Z,552
2017-05-10T04:04:09.315Z,564
2017-05-10T04:04:50.196Z,588
2017-05-10T04:05:31.074Z,632
2017-05-10T04:06:11.965Z,660
2017-05-10T04:06:52.863Z,652
2017-05-10T04:07:33.750Z,648
2017-05-10T04:08:14.631Z,648
2017-05-10T04:08:55.524Z,636
2017-05-10T04:09:36.396Z,628
2017-05-10T04:10:17.284Z,628
2017-05-10T04:10:58.152Z,640
2017-05-10T04:11:39.036Z,704
2017-05-10T04:12:19.935Z,780
2017-05-10T04:13:00.815Z,824
2017-05-10T04:13:41.703Z,824
2017-05-10T04:14:22.600Z,812
2017-05-10T04:15:03.499Z,804
2017-05-10T04:15:44.379Z,772
2017-05-10T04:16:25.268Z,764
2017-05-10T04:17:06.149Z,772
2017-05-10T04:17:47.019Z,776
2017-05-10T04:18:27.896Z,816
2017-05-10T04:19:08.778Z,868
2017-05-10T04:19:49.672Z,904
2017-05-10T04:20:30.542Z,936
2017-05-10T04:21:11.419Z,952
2017-05-10T04:21:52.307Z,964
2017-05-10T04:22:33.195Z,988
2017-05-10T04:23:14.078Z,1020
2017-05-10T04:23:54.978Z,1032
2017-05-10T04:24:35.896Z,1056
2017-05-10T04:25:16.763Z,1116
2017-05-10T04:25:57.629Z,1180
2017-05-10T04:26:38.542Z,1256
2017-05-10T04:27:19.448Z,1320
2017-05-10T04:28:00.331Z,1384
2017-05-10T04:28:41.223Z,1436
2017-05-10T04:29:22.105Z,1496
2017-05-10T04:30:02.996Z,1552
2017-05-10T04:30:43.881Z,1596
2017-05-10T04:31:24.767Z,1628
2017-05-10T04:32:05.652Z,1632
2017-05-10T04:32:46.541Z,1612
2017-05-10T04:33:27.432Z,1568
2017-05-10T04:34:08.310Z,1528
2017-05-10T04:34:49.195Z,1520
2017-05-10T04:35:30.075Z,1540
2017-05-10T04:36:10.952Z,1588
2017-05-10T04:36:51.845Z,1656
2017-05-10T04:37:32.723Z,1748
2017-05-10T04:38:13.606Z,1860
2017-05-10T04:38:54.501Z,1988
2017-05-10T04:39:35.374Z,2116
2017-05-10T04:40:16.255Z,2216
2017-05-10T04:40:57.146Z,2284
2017-05-10T04:41:38.044Z,2320
2017-05-10T04:42:18.912Z,2336
2017-05-10T04:42:59.782Z,2340
2017-05-10T04:43:40.672Z,2336
2017-05-10T04:44:21.568Z,2296
2017-05-10T04:45:02.437Z,2212
2017-05-10T04:45:43.326Z,2104
2017-05-10T04:46:24.187Z,2000
2017-05-10T04:47:05.114Z,1928
2017-05-10T04:47:45.990Z,1884
2017-05-10T04:48:26.869Z,1828
2017-05-10T04:49:07.742Z,1728
2017-05-10T04:49:48.635Z,1648
2017-05-10T04:50:29.552Z,1560
2017-05-10T04:51:10.436Z,1488
2017-05-10T04:51:51.331Z,1356
2017-05-10T04:52:32.196Z,1080
2017-05-10T04:53:13.068Z,936
2017-05-10T04:53:53.927Z,992
2017-05-10T04:54:34.812Z,952
2017-05-10T04:55:15.711Z,900
2017-05-10T04:55:56.578Z,860
2017-05-10T04:56:37.446Z,896
2017-05-10T04:57:18.317Z,948
2017-05-10T04:57:59.203Z,816
2017-05-10T04:58:40.087Z,616
2017-05-10T04:59:20.966Z,572
2017-05-10T05:00:01.836Z,624
2017-05-10T05:00:42.705Z,684
2017-05-10T05:01:23.587Z,760
2017-05-10T05:02:04.505Z,800
2017-05-10T05:02:45.389Z,812
2017-05-10T05:03:26.270Z,820
2017-05-10T05:04:07.157Z,836
2017-05-10T05:04:48.034Z,972
2017-05-10T05:05:28.891Z,924
2017-05-10T05:06:09.804Z,800
2017-05-10T05:06:50.663Z,832
2017-05-10T05:07:31.532Z,960
2017-05-10T05:08:12.422Z,1040
2017-05-10T05:08:53.293Z,1000
2017-05-10T05:09:34.159Z,1036
2017-05-10T05:10:15.054Z,1104
2017-05-10T05:10:55.963Z,1112
2017-05-10T05:11:36.828Z,1132
2017-05-10T05:12:17.695Z,1224
2017-05-10T05:12:58.580Z,1264
2017-05-10T05:13:39.490Z,1256
2017-05-10T05:14:20.366Z,1140
2017-05-10T05:15:01.277Z,1096
2017-05-10T05:15:42.249Z,1120
2017-05-10T05:16:23.142Z,1220
2017-05-10T05:17:04.004Z,1408
2017-05-10T05:17:44.885Z,1560
2017-05-10T05:18:25.781Z,1844
2017-05-10T05:19:06.665Z,2372
2017-05-10T05:19:47.553Z,2800
2017-05-10T05:20:28.455Z,3084
2017-05-10T05:21:09.344Z,3264
2017-05-10T05:21:50.203Z,3508
2017-05-10T05:22:31.069Z,3864
2017-05-10T05:23:11.953Z,4152
2017-05-10T05:23:52.846Z,4336
2017-05-10T05:24:33.738Z,4404
2017-05-10T05:25:14.598Z,4380
2017-05-10T05:25:55.462Z,4332
2017-05-10T05:26:36.350Z,4364
2017-05-10T05:27:17.285Z,4412
2017-05-10T05:27:58.134Z,4460
2017-05-10T05:28:39.042Z,4532
2017-05-10T05:29:19.936Z,4572
2017-05-10T05:30:00.797Z,4580
2017-05-10T05:30:41.672Z,4552
2017-05-10T05:31:22.552Z,4520
2017-05-10T05:32:03.473Z,4476
2017-05-10T05:32:44.323Z,4400
2017-05-10T05:33:25.239Z,4316
2017-05-10T05:34:06.063Z,4272
2017-05-10T05:34:46.946Z,4220
2017-05-10T05:35:27.864Z,4176
2017-05-10T05:36:08.741Z,4116
2017-05-10T05:36:49.626Z,4052
2017-05-10T05:37:30.540Z,3992
2017-05-10T05:38:11.410Z,3932
2017-05-10T05:38:52.288Z,3908
2017-05-10T05:39:33.164Z,3904
2017-05-10T05:40:14.711Z,3916
2017-05-10T05:40:55.588Z,3960
2017-05-10T05:41:36.539Z,4024
2017-05-10T05:42:17.369Z,4084
2017-05-10T05:42:58.235Z,4144
2017-05-10T05:43:39.115Z,4220
2017-05-10T05:44:19.997Z,4296
2017-05-10T05:45:00.885Z,4356
2017-05-10T05:45:41.759Z,4416
2017-05-10T05:46:22.661Z,4504
2017-05-10T05:47:03.513Z,4616
2017-05-10T05:47:44.523Z,4744
2017-05-10T05:49:38.419Z,5232
2017-05-10T05:50:19.302Z,5404
2017-05-10T05:51:00.191Z,5632
2017-05-10T05:51:41.070Z,5884
2017-05-10T05:52:21.944Z,6144
2017-05-10T05:53:02.810Z,6248
2017-05-10T05:53:43.692Z,6228
2017-05-10T05:54:24.585Z,6204
2017-05-10T05:55:05.486Z,6256
2017-05-10T05:55:46.373Z,6324
2017-05-10T05:56:27.258Z,6340
2017-05-10T05:57:10.773Z,6388
2017-05-10T05:57:51.656Z,6528
2017-05-10T05:58:32.539Z,6656
2017-05-10T05:59:13.424Z,6840
2017-05-10T05:59:54.492Z,7052
2017-05-10T06:00:35.349Z,7204
2017-05-10T06:01:16.330Z,7308
2017-05-10T06:03:10.173Z,7676
2017-05-10T06:03:51.173Z,7812
2017-05-10T06:04:32.091Z,7912
2017-05-10T06:05:13.013Z,8372
2017-05-10T06:05:53.974Z,8628
2017-05-10T06:06:34.905Z,8764
2017-05-10T06:08:35.834Z,9524
2017-05-10T06:09:16.816Z,9404
2017-05-10T06:11:31.279Z,9184
2017-05-10T06:12:12.164Z,9056
2017-05-10T06:12:53.103Z,9020
2017-05-10T06:13:33.971Z,9132
2017-05-10T06:14:14.864Z,9264
2017-05-10T06:14:55.769Z,9528
2017-05-10T06:15:36.696Z,9672
2017-05-10T06:16:17.575Z,9612
2017-05-10T06:16:58.443Z,9500
2017-05-10T06:17:39.330Z,9476
2017-05-10T06:18:20.214Z,9516
2017-05-10T06:19:01.139Z,9364
2017-05-10T06:19:42.197Z,9312
2017-05-10T06:20:23.080Z,9400
2017-05-10T06:21:05.789Z,9532
2017-05-10T06:21:46.674Z,9620
2017-05-10T06:22:27.563Z,9644
2017-05-10T06:23:08.444Z,9588
2017-05-10T06:23:49.427Z,9528
2017-05-10T06:24:30.331Z,9496
2017-05-10T06:25:11.214Z,9512
2017-05-10T06:25:52.104Z,9464
2017-05-10T06:26:32.989Z,9308
2017-05-10T06:27:13.905Z,9144
2017-05-10T06:27:54.798Z,9088
2017-05-10T06:29:48.426Z,9344
2017-05-10T06:30:29.308Z,9064
2017-05-10T06:31:10.190Z,9380
2017-05-10T06:31:51.066Z,9476
2017-05-10T06:32:31.952Z,9456
2017-05-10T06:33:12.824Z,9388
2017-05-10T06:33:53.712Z,9656
2017-05-10T06:34:34.595Z,9900
2017-05-10T06:35:15.463Z,10376
2017-05-10T06:35:56.364Z,11112
2017-05-10T06:36:37.247Z,11800
2017-05-10T06:37:18.133Z,12384
2017-05-10T06:37:59.006Z,12908
2017-05-10T06:38:39.896Z,13048
2017-05-10T06:39:20.799Z,10464
2017-05-10T06:40:01.678Z,11556
2017-05-10T06:40:42.548Z,10724
2017-05-10T06:41:23.451Z,8472
2017-05-10T06:42:04.333Z,8896
2017-05-10T06:42:45.222Z,13388
2017-05-10T06:43:26.111Z,8852
2017-05-10T06:44:07.026Z,8788
2017-05-10T06:44:47.885Z,9316
2017-05-10T06:45:28.766Z,9636
2017-05-10T06:46:09.663Z,12568
2017-05-10T06:46:50.546Z,13760
2017-05-10T06:47:31.467Z,19712
2017-05-10T06:48:12.364Z,23392
2017-05-10T06:48:53.251Z,18112
2017-05-10T06:49:34.159Z,17472
2017-05-10T06:50:15.052Z,19168
2017-05-10T06:50:55.922Z,11532
2017-05-10T06:51:36.798Z,11892
2017-05-10T06:52:17.657Z,12428
2017-05-10T06:52:58.519Z,12380
2017-05-10T06:53:39.414Z,12044
2017-05-10T06:54:20.393Z,15712
2017-05-10T06:55:01.299Z,16000
2017-05-10T06:55:42.233Z,11600
2017-05-10T06:56:23.146Z,14312
2017-05-10T06:57:04.027Z,13256
2017-05-10T06:57:44.903Z,14168
2017-05-10T06:58:25.796Z,13332
2017-05-10T06:59:06.684Z,12980
2017-05-10T06:59:47.572Z,13164
2017-05-10T07:00:28.445Z,14408
2017-05-10T07:01:09.332Z,13288
2017-05-10T07:01:50.220Z,13644
2017-05-10T07:02:31.104Z,14836
2017-05-10T07:03:11.980Z,14968
2017-05-10T07:03:52.867Z,14920
2017-05-10T07:04:33.767Z,14188
2017-05-10T07:05:14.644Z,13840
2017-05-10T07:05:55.538Z,12752
2017-05-10T07:06:36.406Z,12824
2017-05-10T07:07:17.279Z,12512
2017-05-10T07:07:58.167Z,11848
2017-05-10T07:08:39.042Z,11696
2017-05-10T07:09:19.934Z,10916
2017-05-10T07:10:00.839Z,9584
2017-05-10T07:10:41.732Z,8496
2017-05-10T07:11:22.618Z,8396
2017-05-10T07:12:03.514Z,9668
2017-05-10T07:12:44.393Z,10220
2017-05-10T07:13:25.282Z,10188
2017-05-10T07:14:06.182Z,10928
2017-05-10T07:14:47.061Z,10576
2017-05-10T07:15:27.939Z,9936
2017-05-10T07:16:08.832Z,7128
2017-05-10T07:16:49.719Z,8120
2017-05-10T07:17:30.598Z,9784
2017-05-10T07:18:11.500Z,10168
2017-05-10T07:18:52.380Z,8492
2017-05-10T07:19:33.260Z,9880
2017-05-10T07:20:14.134Z,11184
2017-05-10T07:20:55.033Z,13920
2017-05-10T07:21:35.914Z,8880
2017-05-10T07:22:16.792Z,7916
2017-05-10T07:22:57.670Z,7716
2017-05-10T07:23:38.548Z,7860
2017-05-10T07:24:19.444Z,9440
2017-05-10T07:25:00.323Z,7044
2017-05-10T07:25:41.206Z,7316
2017-05-10T07:26:22.097Z,6360
2017-05-10T07:27:02.988Z,5692
2017-05-10T07:27:43.862Z,5888
2017-05-10T07:28:24.759Z,7252
2017-05-10T07:29:05.667Z,7852
2017-05-10T07:29:46.544Z,8064
2017-05-10T07:30:27.457Z,6504
2017-05-10T07:31:08.342Z,5080
2017-05-10T07:31:49.219Z,4788
2017-05-10T07:32:30.111Z,5564
2017-05-10T07:33:11.007Z,6004
2017-05-10T07:33:51.899Z,8028
2017-05-10T07:34:32.790Z,10816
2017-05-10T07:35:13.684Z,10380
2017-05-10T07:35:54.555Z,9792
2017-05-10T07:36:35.432Z,7784
2017-05-10T07:37:16.332Z,5236
2017-05-10T07:37:57.222Z,4432
2017-05-10T07:38:38.115Z,6352
2017-05-10T07:39:19.009Z,10072
2017-05-10T07:39:59.889Z,20832
2017-05-10T07:40:40.764Z,23616
2017-05-10T07:41:21.651Z,12152
2017-05-10T07:42:02.546Z,9720
2017-05-10T07:42:43.434Z,9200
2017-05-10T07:43:24.319Z,8488
2017-05-10T07:44:05.218Z,8436
2017-05-10T07:44:46.110Z,10796
2017-05-10T07:45:27.028Z,13748
2017-05-10T07:46:07.917Z,14220
2017-05-10T07:46:48.805Z,11892
2017-05-10T07:47:29.697Z,11592
2017-05-10T07:48:10.612Z,12756
2017-05-10T07:48:51.478Z,25664
2017-05-10T07:49:32.357Z,35616
2017-05-10T07:50:13.247Z,35520
2017-05-10T07:50:54.144Z,15852
2017-05-10T07:51:35.022Z,19424
2017-05-10T07:52:15.910Z,19712
2017-05-10T07:52:56.798Z,24192
2017-05-10T07:53:37.694Z,21920
2017-05-10T07:54:18.603Z,35008
2017-05-10T07:54:59.504Z,28672
2017-05-10T07:55:40.376Z,22656
2017-05-10T07:56:21.274Z,33760
2017-05-10T07:57:02.162Z,34048
2017-05-10T07:57:43.058Z,32704
2017-05-10T07:58:23.952Z,9236
2017-05-10T07:59:04.844Z,7084
2017-05-10T07:59:45.733Z,6016
2017-05-10T08:00:26.638Z,5128
2017-05-10T08:01:07.529Z,4548
2017-05-10T08:01:48.412Z,4212
2017-05-10T08:02:29.307Z,4872
2017-05-10T08:03:10.209Z,6464
2017-05-10T08:03:51.102Z,6552
2017-05-10T08:04:32.033Z,6496
2017-05-10T08:05:12.945Z,6872
2017-05-10T08:05:53.834Z,6904
2017-05-10T08:06:34.702Z,6712
2017-05-10T08:07:15.573Z,6672
2017-05-10T08:07:56.471Z,19456
2017-05-10T08:08:37.349Z,5992
2017-05-10T08:09:18.238Z,5812
2017-05-10T08:09:59.130Z,5624
2017-05-10T08:10:40.031Z,6164
2017-05-10T08:11:20.911Z,6300
2017-05-10T08:12:01.806Z,5440
2017-05-10T08:12:42.697Z,4824
2017-05-10T08:13:23.617Z,4472
2017-05-10T08:14:04.461Z,4412
2017-05-10T08:14:45.356Z,4408
2017-05-10T08:15:26.246Z,4792
2017-05-10T08:16:07.130Z,5036
2017-05-10T08:16:48.023Z,5324
2017-05-10T08:17:28.909Z,5380
2017-05-10T08:18:09.794Z,4948
2017-05-10T08:18:50.673Z,4980
2017-05-10T08:19:31.583Z,5544
2017-05-10T08:20:12.472Z,5944
2017-05-10T08:20:53.346Z,6636
2017-05-10T08:21:34.246Z,6724
2017-05-10T08:22:15.138Z,6840
2017-05-10T08:22:56.014Z,6944
2017-05-10T08:23:36.887Z,6268
2017-05-10T08:24:17.780Z,5120
2017-05-10T08:24:58.679Z,4760
2017-05-10T08:25:39.564Z,4736
2017-05-10T08:26:20.461Z,4728
2017-05-10T08:27:01.341Z,4860
2017-05-10T08:27:42.219Z,5108
2017-05-10T08:28:23.108Z,5512
2017-05-10T08:29:03.994Z,5716
2017-05-10T08:29:44.874Z,5956
2017-05-10T08:30:25.786Z,6112
2017-05-10T08:31:06.685Z,5928
2017-05-10T08:31:47.568Z,5984
2017-05-10T08:32:28.443Z,6216
2017-05-10T08:33:09.320Z,6052
2017-05-10T08:33:50.213Z,5956
2017-05-10T08:34:31.089Z,5680
2017-05-10T08:35:11.976Z,5728
2017-05-10T08:35:52.874Z,5960
2017-05-10T08:36:33.756Z,5780
2017-05-10T08:37:14.669Z,5584
2017-05-10T08:37:55.560Z,5460
2017-05-10T08:38:36.447Z,4804
2017-05-10T08:40:51.054Z,4872
2017-05-10T08:41:31.953Z,4516
2017-05-10T08:42:12.826Z,4160
2017-05-10T08:42:53.698Z,3944
2017-05-10T08:43:34.596Z,3900
2017-05-10T08:44:15.478Z,3608
2017-05-10T08:44:56.384Z,3620
2017-05-10T08:45:37.223Z,3440
2017-05-10T08:46:18.097Z,3544
2017-05-10T08:46:58.976Z,3664
2017-05-10T08:47:39.864Z,3780
2017-05-10T08:48:20.739Z,4064
2017-05-10T08:49:01.613Z,4620
2017-05-10T08:49:42.493Z,5184
2017-05-10T08:50:23.378Z,5620
2017-05-10T08:51:04.260Z,5892
2017-05-10T08:51:45.124Z,5428
2017-05-10T08:52:25.985Z,4792
2017-05-10T08:53:06.854Z,4428
2017-05-10T08:53:47.775Z,4484
2017-05-10T08:54:28.642Z,4416
2017-05-10T08:55:09.576Z,4384
2017-05-10T08:55:50.470Z,4184
2017-05-10T08:56:31.391Z,3876
2017-05-10T08:57:12.285Z,3544
2017-05-10T08:57:53.160Z,3216
2017-05-10T08:58:34.022Z,3104
2017-05-10T08:59:14.892Z,3324
2017-05-10T08:59:55.817Z,3644
2017-05-10T09:00:36.669Z,3952
2017-05-10T09:01:17.546Z,4064
2017-05-10T09:01:58.422Z,4044
2017-05-10T09:02:39.290Z,4260
2017-05-10T09:03:20.223Z,4644
2017-05-10T09:04:01.100Z,4876
2017-05-10T09:04:41.988Z,4972
2017-05-10T09:05:22.888Z,4756
2017-05-10T09:06:03.755Z,4328
2017-05-10T09:06:44.640Z,3912
2017-05-10T09:07:25.535Z,3628
2017-05-10T09:08:06.425Z,3600
2017-05-10T09:08:47.344Z,3884
2017-05-10T09:09:28.195Z,4472
2017-05-10T09:10:09.072Z,5028
2017-05-10T09:10:49.960Z,6080
2017-05-10T09:11:30.837Z,7500
2017-05-10T09:12:11.717Z,8404
2017-05-10T09:12:52.603Z,8856
2017-05-10T09:13:33.501Z,9004
2017-05-10T09:14:14.363Z,8836
2017-05-10T09:14:55.245Z,7680
2017-05-10T09:15:36.141Z,6676
2017-05-10T09:16:17.030Z,5916
2017-05-10T09:16:57.911Z,5576
2017-05-10T09:17:38.787Z,5812
2017-05-10T09:18:19.679Z,6344
2017-05-10T09:19:00.585Z,5744
2017-05-10T09:19:41.449Z,5476
2017-05-10T09:20:22.313Z,6144
2017-05-10T09:21:03.217Z,6092
2017-05-10T09:21:44.105Z,6460
2017-05-10T09:22:24.982Z,7040
2017-05-10T09:23:05.875Z,7596
2017-05-10T09:23:46.759Z,7632
2017-05-10T09:24:27.658Z,7424
2017-05-10T09:25:08.567Z,8068
2017-05-10T09:25:49.455Z,9132
2017-05-10T09:26:30.335Z,10440
2017-05-10T09:27:11.239Z,13024
2017-05-10T09:27:52.127Z,11092
2017-05-10T09:28:33.017Z,10764
2017-05-10T09:29:13.914Z,9660
2017-05-10T09:29:54.814Z,9056
2017-05-10T09:30:35.686Z,8904
2017-05-10T09:31:16.583Z,8712
2017-05-10T09:31:57.472Z,9100
2017-05-10T09:32:38.365Z,10620